Old London, Texas
Current Conditions -  °F | °C
As of 8:35 AM on Friday 31 Oct 2014 (Local Time) from KRFI Reporting Station
Clear Clear  
Wind Chill: 56°   Ceiling: Unl
Heat Index: 56°   Visibility: 10mi
Dew Point: 44°   Wind: 5mph
Humidity: 63%   Direction: 350°N
Pressure: 30.21"   Gusts: NA
Location:  32.2538°N, 94.9427°W
Report Text: KRFI 311335Z AUTO 35004KT 10SM CLR 14/07 A3021 RMK AO2 T01350065
Loading
Personal Weather Stations






























Interactive Weather Map
Tropical Storm Tracking
New forecast layout! Learn more

10-Day Weather Forecast

Advertisements
Track Severe Weather on mobile